sensor_id;sensor_type;location;lat;lon;timestamp;pressure;altitude;pressure_sealevel;temperature;humidity
53916;BME280;39827;49.652;18.770;2023-01-27T00:00:15;96441.88;;;-0.27;100.00
53916;BME280;39827;49.652;18.770;2023-01-27T00:02:41;96446.28;;;-0.28;100.00
53916;BME280;39827;49.652;18.770;2023-01-27T00:05:08;96450.72;;;-0.21;100.00
53916;BME280;39827;49.652;18.770;2023-01-27T00:07:34;96441.59;;;-0.39;100.00
53916;BME280;39827;49.652;18.770;2023-01-27T00:10:00;96448.22;;;-0.36;100.00
53916;BME280;39827;49.652;18.770;2023-01-27T00:12:26;96437.53;;;-0.48;100.00
53916;BME280;39827;49.652;18.770;2023-01-27T00:15:12;96435.47;;;-0.53;100.00
53916;BME280;39827;49.652;18.770;2023-01-27T00:17:37;96431.25;;;-0.54;100.00
53916;BME280;39827;49.652;18.770;2023-01-27T00:20:04;96433.78;;;-0.39;100.00
53916;BME280;39827;49.652;18.770;2023-01-27T00:22:30;96437.75;;;-0.43;100.00
53916;BME280;39827;49.652;18.770;2023-01-27T00:25:14;96432.56;;;-0.43;100.00
53916;BME280;39827;49.652;18.770;2023-01-27T00:27:40;96421.28;;;-0.50;100.00
53916;BME280;39827;49.652;18.770;2023-01-27T00:30:06;96425.88;;;-0.53;100.00
53916;BME280;39827;49.652;18.770;2023-01-27T00:32:32;96430.91;;;-0.51;100.00
53916;BME280;39827;49.652;18.770;2023-01-27T00:35:16;96432.38;;;-0.42;100.00
53916;BME280;39827;49.652;18.770;2023-01-27T00:37:43;96438.13;;;-0.46;100.00
53916;BME280;39827;49.652;18.770;2023-01-27T00:40:10;96431.25;;;-0.54;100.00
53916;BME280;39827;49.652;18.770;2023-01-27T00:42:36;96429.53;;;-0.47;100.00
53916;BME280;39827;49.652;18.770;2023-01-27T00:45:01;96430.59;;;-0.63;100.00
53916;BME280;39827;49.652;18.770;2023-01-27T00:47:47;96432.25;;;-0.55;100.00
53916;BME280;39827;49.652;18.770;2023-01-27T00:50:12;96442.03;;;-0.57;100.00
53916;BME280;39827;49.652;18.770;2023-01-27T00:52:38;96429.47;;;-0.54;100.00
53916;BME280;39827;49.652;18.770;2023-01-27T00:55:04;96440.34;;;-0.43;100.00
53916;BME280;39827;49.652;18.770;2023-01-27T00:57:30;96454.72;;;-0.47;100.00
53916;BME280;39827;49.652;18.770;2023-01-27T00:59:55;96445.63;;;-0.58;100.00
53916;BME280;39827;49.652;18.770;2023-01-27T01:02:20;96446.44;;;-0.58;100.00
53916;BME280;39827;49.652;18.770;2023-01-27T01:04:46;96442.78;;;-0.63;100.00
53916;BME280;39827;49.652;18.770;2023-01-27T01:07:11;96446.63;;;-0.59;100.00
53916;BME280;39827;49.652;18.770;2023-01-27T01:09:36;96444.50;;;-0.49;100.00
53916;BME280;39827;49.652;18.770;2023-01-27T01:12:02;96445.13;;;-0.47;100.00
53916;BME280;39827;49.652;18.770;2023-01-27T01:14:27;96457.75;;;-0.44;100.00
53916;BME280;39827;49.652;18.770;2023-01-27T01:16:53;96436.75;;;-0.42;100.00
53916;BME280;39827;49.652;18.770;2023-01-27T01:19:20;96433.13;;;-0.48;100.00
53916;BME280;39827;49.652;18.770;2023-01-27T01:21:46;96437.66;;;-0.57;100.00
53916;BME280;39827;49.652;18.770;2023-01-27T01:24:11;96439.66;;;-0.59;100.00
53916;BME280;39827;49.652;18.770;2023-01-27T01:26:37;96436.28;;;-0.53;100.00
53916;BME280;39827;49.652;18.770;2023-01-27T01:29:02;96430.91;;;-0.51;100.00
53916;BME280;39827;49.652;18.770;2023-01-27T01:31:28;96429.72;;;-0.48;100.00
53916;BME280;39827;49.652;18.770;2023-01-27T01:33:53;96435.53;;;-0.46;100.00
53916;BME280;39827;49.652;18.770;2023-01-27T01:36:19;96431.25;;;-0.54;100.00
53916;BME280;39827;49.652;18.770;2023-01-27T01:38:46;96423.84;;;-0.57;100.00
53916;BME280;39827;49.652;18.770;2023-01-27T01:41:15;96420.53;;;-0.44;100.00
53916;BME280;39827;49.652;18.770;2023-01-27T01:43:41;96424.97;;;-0.38;100.00
53916;BME280;39827;49.652;18.770;2023-01-27T01:46:09;96429.81;;;-0.35;99.55
53916;BME280;39827;49.652;18.770;2023-01-27T01:51:18;96420.31;;;-0.49;96.20
53916;BME280;39827;49.652;18.770;2023-01-27T01:54:07;96419.22;;;-0.62;96.93
53916;BME280;39827;49.652;18.770;2023-01-27T01:56:43;96418.22;;;-0.61;97.70
53916;BME280;39827;49.652;18.770;2023-01-27T01:59:30;96419.81;;;-0.60;98.14
53916;BME280;39827;49.652;18.770;2023-01-27T02:01:59;96427.25;;;-0.57;96.85
53916;BME280;39827;49.652;18.770;2023-01-27T02:04:32;96416.34;;;-0.45;96.64
53916;BME280;39827;49.652;18.770;2023-01-27T02:07:08;96421.72;;;-0.47;92.68
53916;BME280;39827;49.652;18.770;2023-01-27T02:09:37;96418.44;;;-0.56;91.50
53916;BME280;39827;49.652;18.770;2023-01-27T02:12:03;96412.25;;;-0.76;90.85
53916;BME280;39827;49.652;18.770;2023-01-27T02:14:28;96408.13;;;-0.71;94.35
53916;BME280;39827;49.652;18.770;2023-01-27T02:16:54;96402.25;;;-0.80;94.05
53916;BME280;39827;49.652;18.770;2023-01-27T02:19:25;96410.13;;;-0.73;95.17
53916;BME280;39827;49.652;18.770;2023-01-27T02:21:53;96399.44;;;-0.85;93.59
53916;BME280;39827;49.652;18.770;2023-01-27T02:24:23;96391.22;;;-0.82;95.11
53916;BME280;39827;49.652;18.770;2023-01-27T02:26:54;96408.75;;;-0.11;92.77
53916;BME280;39827;49.652;18.770;2023-01-27T02:29:19;96420.31;;;-0.49;92.90
53916;BME280;39827;49.652;18.770;2023-01-27T02:31:46;96411.50;;;-0.48;92.64
53916;BME280;39827;49.652;18.770;2023-01-27T02:34:14;96414.84;;;-0.55;94.25
53916;BME280;39827;49.652;18.770;2023-01-27T02:36:52;96403.06;;;-0.79;93.99
53916;BME280;39827;49.652;18.770;2023-01-27T02:39:21;96414.09;;;-0.77;93.66
53916;BME280;39827;49.652;18.770;2023-01-27T02:41:51;96403.38;;;-0.67;95.08
53916;BME280;39827;49.652;18.770;2023-01-27T02:44:17;96412.00;;;-0.60;96.20
53916;BME280;39827;49.652;18.770;2023-01-27T02:46:42;96410.91;;;-0.72;96.67
53916;BME280;39827;49.652;18.770;2023-01-27T02:49:08;96411.97;;;-0.88;96.35
53916;BME280;39827;49.652;18.770;2023-01-27T02:51:33;96408.19;;;-1.08;97.41
53916;BME280;39827;49.652;18.770;2023-01-27T02:53:59;96418.47;;;-0.99;98.96
53916;BME280;39827;49.652;18.770;2023-01-27T02:56:24;96419.41;;;-0.63;95.39
53916;BME280;39827;49.652;18.770;2023-01-27T02:58:50;96421.19;;;-0.86;86.54
53916;BME280;39827;49.652;18.770;2023-01-27T03:01:15;96419.28;;;-0.77;91.65
53916;BME280;39827;49.652;18.770;2023-01-27T03:03:41;96420.88;;;-0.98;89.81
53916;BME280;39827;49.652;18.770;2023-01-27T03:06:12;96419.41;;;-1.07;88.87
53916;BME280;39827;49.652;18.770;2023-01-27T03:08:38;96405.03;;;-1.03;92.33
53916;BME280;39827;49.652;18.770;2023-01-27T03:11:04;96406.53;;;-0.94;94.76
53916;BME280;39827;49.652;18.770;2023-01-27T03:13:29;96403.63;;;-1.06;97.37
53916;BME280;39827;49.652;18.770;2023-01-27T03:15:57;96409.66;;;-0.98;99.43
53916;BME280;39827;49.652;18.770;2023-01-27T03:18:41;96414.09;;;-0.77;98.81
53916;BME280;39827;49.652;18.770;2023-01-27T03:21:12;96409.47;;;-0.75;99.25
53916;BME280;39827;49.652;18.770;2023-01-27T03:23:38;96404.13;;;-0.95;98.29
53916;BME280;39827;49.652;18.770;2023-01-27T03:26:08;96402.31;;;-0.95;97.98
53916;BME280;39827;49.652;18.770;2023-01-27T03:28:34;96393.28;;;-0.99;97.27
53916;BME280;39827;49.652;18.770;2023-01-27T03:31:05;96405.78;;;-1.09;97.98
53916;BME280;39827;49.652;18.770;2023-01-27T03:33:31;96409.81;;;-1.07;97.75
53916;BME280;39827;49.652;18.770;2023-01-27T03:35:57;96395.25;;;-1.01;95.44
53916;BME280;39827;49.652;18.770;2023-01-27T03:38:43;96393.72;;;-1.17;94.11
53916;BME280;39827;49.652;18.770;2023-01-27T03:41:27;96402.06;;;-1.22;96.12
53916;BME280;39827;49.652;18.770;2023-01-27T03:44:12;96389.81;;;-1.06;98.84
53916;BME280;39827;49.652;18.770;2023-01-27T03:46:55;96401.50;;;-0.95;96.58
53916;BME280;39827;49.652;18.770;2023-01-27T03:49:21;96396.25;;;-1.02;96.53
53916;BME280;39827;49.652;18.770;2023-01-27T03:51:46;96388.97;;;-0.92;92.64
53916;BME280;39827;49.652;18.770;2023-01-27T03:54:12;96397.69;;;-0.99;94.02
53916;BME280;39827;49.652;18.770;2023-01-27T03:56:37;96387.91;;;-1.19;96.62
53916;BME280;39827;49.652;18.770;2023-01-27T03:59:02;96386.78;;;-1.32;98.47
53916;BME280;39827;49.652;18.770;2023-01-27T04:01:28;96387.28;;;-1.21;96.33
53916;BME280;39827;49.652;18.770;2023-01-27T04:03:53;96399.25;;;-1.20;95.95
53916;BME280;39827;49.652;18.770;2023-01-27T04:06:40;96393.94;;;-1.12;95.04
53916;BME280;39827;49.652;18.770;2023-01-27T04:09:25;96391.00;;;-1.09;94.61
53916;BME280;39827;49.652;18.770;2023-01-27T04:11:51;96387.53;;;-1.16;94.18
53916;BME280;39827;49.652;18.770;2023-01-27T04:14:21;96382.97;;;-1.14;93.42
53916;BME280;39827;49.652;18.770;2023-01-27T04:16:47;96385.19;;;-1.11;94.62
53916;BME280;39827;49.652;18.770;2023-01-27T04:19:13;96393.06;;;-1.04;96.12
53916;BME280;39827;49.652;18.770;2023-01-27T04:21:39;96388.41;;;-1.09;97.45
53916;BME280;39827;49.652;18.770;2023-01-27T04:24:06;96397.44;;;-1.05;97.50
53916;BME280;39827;49.652;18.770;2023-01-27T04:26:45;96396.00;;;-1.07;97.60
53916;BME280;39827;49.652;18.770;2023-01-27T04:29:12;96394.94;;;-1.13;97.77
53916;BME280;39827;49.652;18.770;2023-01-27T04:31:38;96398.06;;;-1.02;99.06
53916;BME280;39827;49.652;18.770;2023-01-27T04:34:04;96393.03;;;-1.26;97.86
53916;BME280;39827;49.652;18.770;2023-01-27T04:36:30;96401.75;;;-1.12;98.95
53916;BME280;39827;49.652;18.770;2023-01-27T04:38:56;96398.44;;;-1.06;99.20
53916;BME280;39827;49.652;18.770;2023-01-27T04:41:21;96396.13;;;-1.15;99.05
53916;BME280;39827;49.652;18.770;2023-01-27T04:43:46;96392.72;;;-1.16;99.62
53916;BME280;39827;49.652;18.770;2023-01-27T04:46:12;96393.09;;;-0.97;97.94
53916;BME280;39827;49.652;18.770;2023-01-27T04:48:37;96392.22;;;-1.05;97.42
53916;BME280;39827;49.652;18.770;2023-01-27T04:51:03;96395.66;;;-1.04;96.95
53916;BME280;39827;49.652;18.770;2023-01-27T04:53:28;96393.53;;;-0.94;96.03
53916;BME280;39827;49.652;18.770;2023-01-27T04:56:10;96396.81;;;-1.07;95.31
53916;BME280;39827;49.652;18.770;2023-01-27T04:58:38;96395.25;;;-1.01;94.99
53916;BME280;39827;49.652;18.770;2023-01-27T05:01:03;96399.44;;;-1.07;95.58
53916;BME280;39827;49.652;18.770;2023-01-27T05:03:29;96393.22;;;-1.06;96.02
53916;BME280;39827;49.652;18.770;2023-01-27T05:05:54;96391.88;;;-1.01;97.93
53916;BME280;39827;49.652;18.770;2023-01-27T05:08:19;96384.38;;;-1.11;97.17
53916;BME280;39827;49.652;18.770;2023-01-27T05:10:45;96387.78;;;-1.33;97.46
53916;BME280;39827;49.652;18.770;2023-01-27T05:13:10;96379.06;;;-1.25;97.78
53916;BME280;39827;49.652;18.770;2023-01-27T05:15:36;96386.16;;;-1.12;97.27
53916;BME280;39827;49.652;18.770;2023-01-27T05:18:01;96388.75;;;-1.12;98.40
53916;BME280;39827;49.652;18.770;2023-01-27T05:20:27;96393.22;;;-1.27;98.57
53916;BME280;39827;49.652;18.770;2023-01-27T05:22:52;96401.38;;;-1.31;98.05
53916;BME280;39827;49.652;18.770;2023-01-27T05:25:41;96393.88;;;-1.19;98.15
53916;BME280;39827;49.652;18.770;2023-01-27T05:28:06;96396.06;;;-1.22;96.23
53916;BME280;39827;49.652;18.770;2023-01-27T05:30:31;96394.06;;;-1.20;97.42
53916;BME280;39827;49.652;18.770;2023-01-27T05:32:57;96400.47;;;-1.01;98.62
53916;BME280;39827;49.652;18.770;2023-01-27T05:35:22;96395.00;;;-1.28;97.18
53916;BME280;39827;49.652;18.770;2023-01-27T05:37:47;96400.25;;;-1.21;98.48
53916;BME280;39827;49.652;18.770;2023-01-27T05:40:13;96391.88;;;-1.23;99.35
53916;BME280;39827;49.652;18.770;2023-01-27T05:42:38;96397.31;;;-1.18;99.80
53916;BME280;39827;49.652;18.770;2023-01-27T05:45:04;96393.84;;;-1.03;99.18
53916;BME280;39827;49.652;18.770;2023-01-27T05:47:30;96401.81;;;-1.05;98.51
53916;BME280;39827;49.652;18.770;2023-01-27T05:49:55;96393.41;;;-1.07;98.08
53916;BME280;39827;49.652;18.770;2023-01-27T05:52:20;96393.84;;;-1.03;96.88
53916;BME280;39827;49.652;18.770;2023-01-27T05:54:46;96393.41;;;-1.07;95.99
53916;BME280;39827;49.652;18.770;2023-01-27T05:57:11;96401.03;;;-1.06;97.19
53916;BME280;39827;49.652;18.770;2023-01-27T05:59:36;96404.28;;;-0.97;96.98
53916;BME280;39827;49.652;18.770;2023-01-27T06:02:02;96396.06;;;-1.00;97.09
53916;BME280;39827;49.652;18.770;2023-01-27T06:04:27;96398.44;;;-1.06;96.65
53916;BME280;39827;49.652;18.770;2023-01-27T06:06:52;96402.31;;;-0.95;97.30
53916;BME280;39827;49.652;18.770;2023-01-27T06:09:18;96411.91;;;-0.95;94.63
53916;BME280;39827;49.652;18.770;2023-01-27T06:11:43;96404.91;;;-1.16;96.11
53916;BME280;39827;49.652;18.770;2023-01-27T06:14:09;96409.94;;;-1.15;97.56
53916;BME280;39827;49.652;18.770;2023-01-27T06:16:34;96406.22;;;-1.06;97.99
53916;BME280;39827;49.652;18.770;2023-01-27T06:18:59;96400.78;;;-1.11;98.32
53916;BME280;39827;49.652;18.770;2023-01-27T06:21:25;96394.94;;;-1.13;98.06
53916;BME280;39827;49.652;18.770;2023-01-27T06:23:50;96388.50;;;-1.17;98.13
53916;BME280;39827;49.652;18.770;2023-01-27T06:26:18;96406.34;;;-1.14;95.56
53916;BME280;39827;49.652;18.770;2023-01-27T06:28:43;96399.25;;;-1.20;96.20
53916;BME280;39827;49.652;18.770;2023-01-27T06:31:12;96403.03;;;-1.23;97.17
53916;BME280;39827;49.652;18.770;2023-01-27T06:33:38;96401.75;;;-1.12;97.68
53916;BME280;39827;49.652;18.770;2023-01-27T06:36:06;96400.84;;;-1.04;98.36
53916;BME280;39827;49.652;18.770;2023-01-27T06:38:32;96396.38;;;-1.10;99.06
53916;BME280;39827;49.652;18.770;2023-01-27T06:40:59;96405.91;;;-0.96;99.29
53916;BME280;39827;49.652;18.770;2023-01-27T06:43:24;96413.13;;;-1.13;98.86
53916;BME280;39827;49.652;18.770;2023-01-27T06:45:50;96399.66;;;-1.23;97.12
53916;BME280;39827;49.652;18.770;2023-01-27T06:48:16;96402.69;;;-1.20;97.48
53916;BME280;39827;49.652;18.770;2023-01-27T06:50:41;96408.44;;;-1.24;98.56
53916;BME280;39827;49.652;18.770;2023-01-27T06:53:07;96408.72;;;-1.34;99.29
53916;BME280;39827;49.652;18.770;2023-01-27T06:55:33;96412.13;;;-1.34;99.55
53916;BME280;39827;49.652;18.770;2023-01-27T06:58:02;96412.91;;;-1.18;99.82
53916;BME280;39827;49.652;18.770;2023-01-27T07:00:28;96414.19;;;-1.29;97.90
53916;BME280;39827;49.652;18.770;2023-01-27T07:02:57;96417.78;;;-1.30;94.67
53916;BME280;39827;49.652;18.770;2023-01-27T07:05:22;96419.81;;;-1.25;96.87
53916;BME280;39827;49.652;18.770;2023-01-27T07:07:48;96427.72;;;-1.12;97.46
53916;BME280;39827;49.652;18.770;2023-01-27T07:10:13;96416.31;;;-1.17;97.89
53916;BME280;39827;49.652;18.770;2023-01-27T07:12:38;96423.22;;;-1.25;98.29
53916;BME280;39827;49.652;18.770;2023-01-27T07:15:05;96414.03;;;-1.06;98.38
53916;BME280;39827;49.652;18.770;2023-01-27T07:17:31;96418.97;;;-1.11;98.00
53916;BME280;39827;49.652;18.770;2023-01-27T07:19:57;96424.41;;;-1.06;98.15
53916;BME280;39827;49.652;18.770;2023-01-27T07:22:22;96426.66;;;-1.02;97.93
53916;BME280;39827;49.652;18.770;2023-01-27T07:24:48;96427.81;;;-1.05;93.81
53916;BME280;39827;49.652;18.770;2023-01-27T07:27:14;96424.72;;;-0.94;91.26
53916;BME280;39827;49.652;18.770;2023-01-27T07:29:39;96426.84;;;-0.82;92.32
53916;BME280;39827;49.652;18.770;2023-01-27T07:32:04;96436.53;;;-0.69;92.61
53916;BME280;39827;49.652;18.770;2023-01-27T07:34:30;96428.69;;;-0.76;91.11
53916;BME280;39827;49.652;18.770;2023-01-27T07:36:55;96434.06;;;-0.77;92.27
53916;BME280;39827;49.652;18.770;2023-01-27T07:39:21;96437.34;;;-0.90;90.79
53916;BME280;39827;49.652;18.770;2023-01-27T07:41:49;96435.13;;;-0.72;91.37
53916;BME280;39827;49.652;18.770;2023-01-27T07:44:14;96439.44;;;-0.57;88.88
53916;BME280;39827;49.652;18.770;2023-01-27T07:46:40;96443.63;;;-0.63;83.17
53916;BME280;39827;49.652;18.770;2023-01-27T07:49:05;96435.81;;;-0.63;84.51
53916;BME280;39827;49.652;18.770;2023-01-27T07:51:31;96445.81;;;-0.60;81.20
53916;BME280;39827;49.652;18.770;2023-01-27T07:53:56;96445.88;;;-0.53;80.49
53916;BME280;39827;49.652;18.770;2023-01-27T07:56:21;96437.22;;;-0.60;82.52
53916;BME280;39827;49.652;18.770;2023-01-27T07:58:47;96450.72;;;-0.50;81.21
53916;BME280;39827;49.652;18.770;2023-01-27T08:01:12;96442.13;;;-0.44;81.02
53916;BME280;39827;49.652;18.770;2023-01-27T08:03:38;96439.06;;;-0.54;84.22
53916;BME280;39827;49.652;18.770;2023-01-27T08:06:05;96438.47;;;-0.28;84.23
53916;BME280;39827;49.652;18.770;2023-01-27T08:08:31;96446.09;;;-0.26;82.32
53916;BME280;39827;49.652;18.770;2023-01-27T08:11:07;96439.44;;;-0.29;79.67
53916;BME280;39827;49.652;18.770;2023-01-27T08:13:33;96436.63;;;-0.34;80.62
53916;BME280;39827;49.652;18.770;2023-01-27T08:16:00;96432.91;;;-0.18;80.06
53916;BME280;39827;49.652;18.770;2023-01-27T08:18:27;96449.22;;;-0.09;77.00
53916;BME280;39827;49.652;18.770;2023-01-27T08:20:54;96449.81;;;-0.07;76.09
53916;BME280;39827;49.652;18.770;2023-01-27T08:23:23;96448.97;;;-0.14;76.74
53916;BME280;39827;49.652;18.770;2023-01-27T08:25:52;96458.84;;;-0.03;77.22
53916;BME280;39827;49.652;18.770;2023-01-27T08:28:18;96461.44;;;-0.03;77.51
53916;BME280;39827;49.652;18.770;2023-01-27T08:30:45;96460.00;;;-0.12;80.50
53916;BME280;39827;49.652;18.770;2023-01-27T08:33:10;96462.22;;;-0.09;78.00
53916;BME280;39827;49.652;18.770;2023-01-27T08:35:36;96464.47;;;-0.06;78.16
53916;BME280;39827;49.652;18.770;2023-01-27T08:38:03;96466.47;;;-0.01;78.66
53916;BME280;39827;49.652;18.770;2023-01-27T08:40:30;96467.09;;;0.01;78.65
53916;BME280;39827;49.652;18.770;2023-01-27T08:42:55;96470.50;;;0.02;77.86
53916;BME280;39827;49.652;18.770;2023-01-27T08:45:20;96486.31;;;0.00;77.23
53916;BME280;39827;49.652;18.770;2023-01-27T08:47:46;96482.41;;;0.11;76.23
53916;BME280;39827;49.652;18.770;2023-01-27T08:50:12;96490.56;;;0.08;73.61
53916;BME280;39827;49.652;18.770;2023-01-27T08:52:37;96487.38;;;0.12;73.83
53916;BME280;39827;49.652;18.770;2023-01-27T08:55:03;96488.97;;;0.07;74.14
53916;BME280;39827;49.652;18.770;2023-01-27T08:57:28;96478.16;;;-0.19;72.34
53916;BME280;39827;49.652;18.770;2023-01-27T08:59:57;96476.19;;;-0.17;74.55
53916;BME280;39827;49.652;18.770;2023-01-27T09:02:22;96480.59;;;-0.17;nan
53916;BME280;39827;49.652;18.770;2023-01-27T09:04:49;96479.16;;;-0.20;74.38
53916;BME280;39827;49.652;18.770;2023-01-27T09:07:14;96488.81;;;-0.14;75.86
53916;BME280;39827;49.652;18.770;2023-01-27T09:09:40;96489.22;;;-0.17;73.45
53916;BME280;39827;49.652;18.770;2023-01-27T09:12:05;96482.19;;;0.12;73.77
53916;BME280;39827;49.652;18.770;2023-01-27T09:14:31;96482.94;;;0.06;75.14
53916;BME280;39827;49.652;18.770;2023-01-27T09:16:57;96486.69;;;0.25;75.06
53916;BME280;39827;49.652;18.770;2023-01-27T09:19:23;96485.59;;;0.13;72.66
53916;BME280;39827;49.652;18.770;2023-01-27T09:21:48;96482.09;;;0.34;72.55
53916;BME280;39827;49.652;18.770;2023-01-27T09:24:13;96480.63;;;0.18;71.52
53916;BME280;39827;49.652;18.770;2023-01-27T09:26:42;96477.88;;;0.27;72.05
53916;BME280;39827;49.652;18.770;2023-01-27T09:29:08;96482.38;;;0.46;73.27
53916;BME280;39827;49.652;18.770;2023-01-27T09:31:33;96472.00;;;-0.11;77.52
53916;BME280;39827;49.652;18.770;2023-01-27T09:33:59;96476.84;;;-0.08;80.19
53916;BME280;39827;49.652;18.770;2023-01-27T09:36:24;96471.75;;;-0.45;84.15
53916;BME280;39827;49.652;18.770;2023-01-27T09:38:59;96475.06;;;-0.58;85.98
53916;BME280;39827;49.652;18.770;2023-01-27T09:55:37;96484.75;;;-0.45;89.34
53916;BME280;39827;49.652;18.770;2023-01-27T09:58:22;96479.25;;;-0.57;89.32
53916;BME280;39827;49.652;18.770;2023-01-27T10:14:22;96463.41;;;-0.11;86.76
53916;BME280;39827;49.652;18.770;2023-01-27T10:22:20;96453.50;;;0.06;88.27
53916;BME280;39827;49.652;18.770;2023-01-27T10:27:37;96469.94;;;-0.22;86.03
53916;BME280;39827;49.652;18.770;2023-01-27T10:35:32;96459.97;;;-0.41;88.32
53916;BME280;39827;49.652;18.770;2023-01-27T10:40:52;96468.50;;;-0.75;90.16
53916;BME280;39827;49.652;18.770;2023-01-27T10:47:17;96468.59;;;-1.06;93.55
53916;BME280;39827;49.652;18.770;2023-01-27T10:49:56;96474.16;;;-0.87;93.13
53916;BME280;39827;49.652;18.770;2023-01-27T10:52:44;96475.09;;;-0.95;93.06
53916;BME280;39827;49.652;18.770;2023-01-27T10:55:19;96472.81;;;-0.83;92.74
53916;BME280;39827;49.652;18.770;2023-01-27T10:57:59;96471.81;;;-0.60;90.99
53916;BME280;39827;49.652;18.770;2023-01-27T11:00:39;96480.00;;;-0.41;90.75
53916;BME280;39827;49.652;18.770;2023-01-27T11:03:12;96485.97;;;-0.19;90.66
53916;BME280;39827;49.652;18.770;2023-01-27T11:05:50;96486.38;;;0.07;87.01
53916;BME280;39827;49.652;18.770;2023-01-27T11:08:19;96488.28;;;-0.02;87.34
53916;BME280;39827;49.652;18.770;2023-01-27T11:10:48;96476.84;;;-0.08;86.93
53916;BME280;39827;49.652;18.770;2023-01-27T11:13:36;96480.81;;;-0.12;87.09
53916;BME280;39827;49.652;18.770;2023-01-27T11:16:03;96483.72;;;0.00;86.31
53916;BME280;39827;49.652;18.770;2023-01-27T11:18:33;96473.88;;;-0.05;86.57
53916;BME280;39827;49.652;18.770;2023-01-27T11:21:14;96475.84;;;-0.07;87.59
53916;BME280;39827;49.652;18.770;2023-01-27T11:23:44;96471.50;;;0.01;88.42
53916;BME280;39827;49.652;18.770;2023-01-27T11:34:40;96479.06;;;-0.55;89.89
53916;BME280;39827;49.652;18.770;2023-01-27T11:37:20;96488.66;;;-0.34;89.56
53916;BME280;39827;49.652;18.770;2023-01-27T11:39:47;96471.81;;;-0.60;89.70
53916;BME280;39827;49.652;18.770;2023-01-27T11:42:14;96475.41;;;-0.39;90.17
53916;BME280;39827;49.652;18.770;2023-01-27T11:44:41;96464.41;;;-0.41;92.04
53916;BME280;39827;49.652;18.770;2023-01-27T11:47:10;96474.88;;;-0.06;89.66
53916;BME280;39827;49.652;18.770;2023-01-27T11:49:43;96472.25;;;-0.06;89.55
53916;BME280;39827;49.652;18.770;2023-01-27T11:52:14;96479.34;;;0.07;90.11
53916;BME280;39827;49.652;18.770;2023-01-27T11:57:27;96462.34;;;0.11;90.73
53916;BME280;39827;49.652;18.770;2023-01-27T12:00:20;96464.41;;;0.16;90.01
53916;BME280;39827;49.652;18.770;2023-01-27T12:03:02;96468.88;;;0.01;89.07
53916;BME280;39827;49.652;18.770;2023-01-27T12:05:33;96454.72;;;0.10;86.34
53916;BME280;39827;49.652;18.770;2023-01-27T12:08:01;96456.84;;;-0.07;87.05
53916;BME280;39827;49.652;18.770;2023-01-27T12:10:31;96469.47;;;-0.04;87.10
53916;BME280;39827;49.652;18.770;2023-01-27T12:13:12;96452.31;;;0.08;87.25
53916;BME280;39827;49.652;18.770;2023-01-27T12:15:57;96453.53;;;0.12;86.38
53916;BME280;39827;49.652;18.770;2023-01-27T12:18:25;96459.88;;;0.38;83.23
53916;BME280;39827;49.652;18.770;2023-01-27T12:21:05;96456.72;;;0.08;84.70
53916;BME280;39827;49.652;18.770;2023-01-27T12:23:52;96464.72;;;0.06;84.57
53916;BME280;39827;49.652;18.770;2023-01-27T12:26:34;96462.09;;;-0.01;86.04
53916;BME280;39827;49.652;18.770;2023-01-27T12:29:18;96465.00;;;-0.10;85.57
53916;BME280;39827;49.652;18.770;2023-01-27T12:31:47;96460.97;;;0.16;84.03
53916;BME280;39827;49.652;18.770;2023-01-27T12:36:53;96450.28;;;0.04;86.44
53916;BME280;39827;49.652;18.770;2023-01-27T12:39:44;96453.91;;;0.03;87.18
53916;BME280;39827;49.652;18.770;2023-01-27T12:42:33;96448.41;;;-0.09;86.36
53916;BME280;39827;49.652;18.770;2023-01-27T12:45:21;96444.28;;;0.03;88.55
53916;BME280;39827;49.652;18.770;2023-01-27T12:50:36;96451.63;;;-0.07;88.00
53916;BME280;39827;49.652;18.770;2023-01-27T12:55:37;96455.41;;;0.19;89.00
53916;BME280;39827;49.652;18.770;2023-01-27T12:58:04;96441.22;;;0.28;88.58
53916;BME280;39827;49.652;18.770;2023-01-27T13:00:30;96445.53;;;0.56;87.32
53916;BME280;39827;49.652;18.770;2023-01-27T13:03:03;96442.31;;;0.47;86.83
53916;BME280;39827;49.652;18.770;2023-01-27T13:05:35;96441.69;;;0.45;87.26
53916;BME280;39827;49.652;18.770;2023-01-27T13:08:00;96449.06;;;0.35;88.52
53916;BME280;39827;49.652;18.770;2023-01-27T13:10:26;96450.28;;;0.39;89.45
53916;BME280;39827;49.652;18.770;2023-01-27T13:12:57;96438.41;;;0.23;90.16
53916;BME280;39827;49.652;18.770;2023-01-27T13:15:32;96452.13;;;0.10;91.83
53916;BME280;39827;49.652;18.770;2023-01-27T13:17:59;96443.63;;;-0.06;91.69
53916;BME280;39827;49.652;18.770;2023-01-27T13:20:40;96448.84;;;0.30;92.24
53916;BME280;39827;49.652;18.770;2023-01-27T13:23:14;96452.00;;;-0.10;91.16
53916;BME280;39827;49.652;18.770;2023-01-27T13:31:18;96444.50;;;0.08;91.63
53916;BME280;39827;49.652;18.770;2023-01-27T13:33:50;96451.44;;;-0.06;92.05
53916;BME280;39827;49.652;18.770;2023-01-27T13:41:42;96469.19;;;-0.38;93.97
53916;BME280;39827;49.652;18.770;2023-01-27T13:44:25;96468.41;;;-0.38;95.07
53916;BME280;39827;49.652;18.770;2023-01-27T13:46:58;96462.34;;;-0.46;94.71
53916;BME280;39827;49.652;18.770;2023-01-27T13:49:36;96472.81;;;-0.39;92.72
53916;BME280;39827;49.652;18.770;2023-01-27T13:52:04;96468.25;;;-0.37;92.98
53916;BME280;39827;49.652;18.770;2023-01-27T13:54:31;96467.88;;;-0.27;92.23
53916;BME280;39827;49.652;18.770;2023-01-27T14:07:57;96476.97;;;-0.16;89.10
53916;BME280;39827;49.652;18.770;2023-01-27T14:18:44;96481.09;;;-0.50;90.28
53916;BME280;39827;49.652;18.770;2023-01-27T14:26:41;96490.34;;;-0.48;86.65
53916;BME280;39827;49.652;18.770;2023-01-27T14:37:38;96496.09;;;-0.53;86.89
53916;BME280;39827;49.652;18.770;2023-01-27T14:50:51;96510.09;;;-0.54;85.18
53916;BME280;39827;49.652;18.770;2023-01-27T15:01:38;96530.16;;;-0.69;82.82
53916;BME280;39827;49.652;18.770;2023-01-27T15:06:55;96532.31;;;-0.73;87.21
53916;BME280;39827;49.652;18.770;2023-01-27T15:12:34;96538.84;;;-0.99;89.55
53916;BME280;39827;49.652;18.770;2023-01-27T15:15:31;96543.69;;;-1.11;90.63
53916;BME280;39827;49.652;18.770;2023-01-27T15:26:02;96548.50;;;-1.08;93.53